Time;durP1;ratioP1;P1;durP2;ratioP2;P2;SDS_P1;SDS_P2;PMS_P1;PMS_P2;Temp;Humidity;BMP_temperature;BMP_pressure;BME280_temperature;BME280_humidity;BME280_pressure;Samples;Min_cycle;Max_cycle;Signal;HPM_P1;HPM_P2
2021/01/31 00:00:22;;;;;;;72.15;64.28;;;;;;;2.52;62.93;100613.13;5057821;28;20041;-77
2021/01/31 00:02:49;;;;;;;68.05;55.17;;;;;;;2.34;63.77;100607.69;5063380;28;20080;-77
2021/01/31 00:05:15;;;;;;;61.88;48.60;;;;;;;2.45;63.34;100618.22;5069275;28;20039;-76
2021/01/31 00:07:41;;;;;;;71.43;56.20;;;;;;;2.34;63.72;100615.75;5052644;28;20570;-77
2021/01/31 00:10:07;;;;;;;66.10;50.08;;;;;;;2.25;64.38;100620.16;5063679;28;20031;-77
2021/01/31 00:12:33;;;;;;;71.13;55.40;;;;;;;2.34;64.01;100623.78;5057775;28;20032;-77
2021/01/31 00:14:59;;;;;;;70.65;59.70;;;;;;;2.07;64.81;100625.47;5064227;28;20029;-76
2021/01/31 00:17:24;;;;;;;72.35;60.00;;;;;;;2.30;64.45;100627.75;5055707;28;20544;-77
2021/01/31 00:19:50;;;;;;;70.90;52.85;;;;;;;2.33;64.28;100622.94;5062052;28;20063;-77
2021/01/31 00:22:15;;;;;;;66.65;51.75;;;;;;;2.54;63.52;100635.28;5065410;28;20078;-77
2021/01/31 00:24:41;;;;;;;75.93;64.85;;;;;;;2.22;64.70;100635.69;5064624;28;20028;-77
2021/01/31 00:27:06;;;;;;;75.43;58.38;;;;;;;2.46;64.13;100644.06;5056697;28;20029;-77
2021/01/31 00:29:31;;;;;;;64.85;46.95;;;;;;;2.14;65.41;100644.47;5058405;28;20060;-77
2021/01/31 00:31:57;;;;;;;68.03;57.92;;;;;;;2.17;65.14;100646.03;5063553;28;20417;-77
2021/01/31 00:34:22;;;;;;;73.30;64.53;;;;;;;2.47;64.15;100643.09;5062181;28;20056;-77
2021/01/31 00:36:48;;;;;;;70.03;58.35;;;;;;;2.33;64.63;100643.56;5066295;28;20037;-77
2021/01/31 00:39:15;;;;;;;69.45;55.00;;;;;;;2.36;64.42;100647.78;5058061;28;20051;-77
2021/01/31 00:41:41;;;;;;;71.25;59.17;;;;;;;2.16;65.11;100655.91;5059665;28;20033;-77
2021/01/31 00:44:07;;;;;;;61.60;44.15;;;;;;;2.43;64.06;100659.63;5065337;28;20029;-77
2021/01/31 00:46:41;;;;;;;63.65;48.03;;;;;;;2.38;64.33;100653.84;5061692;28;20067;-77
2021/01/31 00:49:08;;;;;;;63.75;50.50;;;;;;;2.46;63.98;100657.50;5052161;28;20455;-77
2021/01/31 00:51:34;;;;;;;63.92;49.33;;;;;;;2.21;64.82;100660.81;5059529;28;20064;-77
2021/01/31 00:53:59;;;;;;;64.60;47.70;;;;;;;2.33;64.20;100662.34;5059734;28;20528;-77
2021/01/31 00:56:25;;;;;;;67.40;52.13;;;;;;;2.31;64.01;100658.97;5056971;28;20060;-77
2021/01/31 00:58:50;;;;;;;70.65;57.05;;;;;;;2.13;64.53;100661.56;5060926;28;20035;-77
2021/01/31 01:01:17;;;;;;;68.47;57.33;;;;;;;2.22;64.68;100662.53;5061109;28;20047;-77
2021/01/31 01:03:43;;;;;;;69.47;57.90;;;;;;;2.17;64.58;100659.44;5065126;28;20371;-77
2021/01/31 01:06:09;;;;;;;71.78;57.88;;;;;;;2.33;64.22;100670.38;5064881;28;20024;-77
2021/01/31 01:08:35;;;;;;;69.63;57.25;;;;;;;2.26;64.22;100674.66;5065516;28;20124;-77
2021/01/31 01:11:00;;;;;;;75.35;62.17;;;;;;;2.02;64.50;100665.25;5064094;28;20111;-77
2021/01/31 01:13:27;;;;;;;72.90;61.30;;;;;;;2.25;64.19;100681.00;5064861;28;20040;-77
2021/01/31 01:15:52;;;;;;;67.88;49.35;;;;;;;2.26;64.17;100674.66;5064433;28;20029;-77
2021/01/31 01:18:18;;;;;;;69.30;51.53;;;;;;;2.25;63.91;100681.00;5066081;28;20524;-76
2021/01/31 01:20:43;;;;;;;71.63;57.38;;;;;;;2.21;64.25;100671.56;5066541;28;20074;-77
2021/01/31 01:23:09;;;;;;;72.57;56.20;;;;;;;1.85;65.18;100660.66;5059761;28;20028;-76
2021/01/31 01:25:34;;;;;;;62.85;45.13;;;;;;;1.86;65.25;100663.19;5055631;28;20040;-76
2021/01/31 01:27:59;;;;;;;76.15;60.00;;;;;;;2.12;64.63;100660.72;5059662;28;20036;-76
2021/01/31 01:30:31;;;;;;;71.53;57.17;;;;;;;1.87;65.29;100662.22;5062935;28;20503;-77
2021/01/31 01:32:57;;;;;;;76.82;65.90;;;;;;;2.12;64.86;100654.53;5058205;28;20039;-76
2021/01/31 01:35:24;;;;;;;74.07;64.32;;;;;;;2.05;64.74;100651.56;5066719;28;20029;-76
2021/01/31 01:37:50;;;;;;;71.28;56.10;;;;;;;1.79;65.16;100635.25;5059232;28;20042;-77
2021/01/31 01:40:27;;;;;;;79.07;70.15;;;;;;;1.93;65.18;100639.31;5067473;28;20113;-76
2021/01/31 01:42:52;;;;;;;79.45;65.55;;;;;;;1.89;64.97;100628.03;5052065;28;20104;-76
2021/01/31 01:45:19;;;;;;;71.25;58.03;;;;;;;2.14;64.93;100634.59;5062246;28;20540;-76
2021/01/31 01:47:46;;;;;;;71.38;51.78;;;;;;;1.74;65.57;100641.03;5060647;28;20025;-77
2021/01/31 01:50:27;;;;;;;77.43;60.28;;;;;;;1.94;64.92;100639.16;5063038;28;20033;-76
2021/01/31 01:52:56;;;;;;;77.50;68.03;;;;;;;1.81;65.36;100632.44;5060405;28;20051;-77
2021/01/31 01:55:23;;;;;;;72.60;59.35;;;;;;;1.87;65.11;100629.16;5063139;28;20666;-77
2021/01/31 01:58:00;;;;;;;72.68;57.70;;;;;;;1.85;65.01;100625.78;5060842;28;20391;-77
2021/01/31 02:00:26;;;;;;;82.38;68.35;;;;;;;1.92;65.09;100625.06;5060621;28;20049;-76
2021/01/31 02:03:00;;;;;;;69.30;55.15;;;;;;;2.03;64.28;100628.56;5045883;28;20085;-77
2021/01/31 02:05:26;;;;;;;72.32;54.80;;;;;;;1.87;64.60;100627.34;5059454;28;20532;-77
2021/01/31 02:07:52;;;;;;;81.55;67.00;;;;;;;1.83;65.25;100620.56;5062845;28;20123;-77
2021/01/31 02:10:19;;;;;;;76.68;60.58;;;;;;;1.76;65.28;100631.03;5054183;28;20028;-77
2021/01/31 02:12:46;;;;;;;78.70;65.63;;;;;;;1.85;64.52;100623.13;5058978;28;20032;-77
2021/01/31 02:15:14;;;;;;;75.50;60.95;;;;;;;1.58;65.14;100614.84;5058042;28;20037;-77
2021/01/31 02:18:07;;;;;;;86.75;76.70;;;;;;;1.96;64.59;100625.63;5064417;28;20424;-77
2021/01/31 02:21:04;;;;;;;86.07;77.18;;;;;;;1.89;64.74;100621.84;5055860;28;20041;-77
2021/01/31 02:24:03;;;;;;;86.05;74.25;;;;;;;1.96;64.21;100629.16;5064862;28;20033;-77
2021/01/31 02:27:05;;;;;;;81.50;69.47;;;;;;;1.97;64.36;100627.31;5058899;28;20033;-77
2021/01/31 02:29:40;;;;;;;74.53;62.63;;;;;;;2.06;63.81;100633.66;5060603;28;20046;-77
2021/01/31 02:32:52;;;;;;;78.22;62.88;;;;;;;2.06;63.75;100628.28;5060343;28;20608;-77
2021/01/31 02:35:24;;;;;;;81.00;70.28;;;;;;;1.86;63.88;100624.81;5063054;28;20600;-78
2021/01/31 02:38:31;;;;;;;73.97;60.40;;;;;;;2.04;63.90;100631.13;5062902;28;20041;-77
2021/01/31 02:41:08;;;;;;;73.35;55.67;;;;;;;1.64;64.77;100625.97;5062989;28;20922;-78
2021/01/31 02:43:53;;;;;;;68.85;50.47;;;;;;;2.00;63.76;100643.13;5060248;28;20037;-77
2021/01/31 02:46:34;;;;;;;75.63;62.30;;;;;;;2.08;63.83;100639.69;5060926;28;20602;-77
2021/01/31 02:49:06;;;;;;;76.07;57.83;;;;;;;1.95;64.08;100629.31;5066484;28;20390;-76
2021/01/31 02:51:54;;;;;;;78.45;66.50;;;;;;;2.12;63.64;100619.66;5059771;28;20029;-76
2021/01/31 02:54:44;;;;;;;70.47;52.38;;;;;;;1.92;64.46;100610.81;5062365;28;20024;-76
2021/01/31 02:57:15;;;;;;;76.88;63.25;;;;;;;1.97;63.81;100614.75;5066665;28;20032;-76
2021/01/31 02:59:55;;;;;;;79.53;65.45;;;;;;;1.84;64.18;100616.06;5063453;28;20037;-76
2021/01/31 03:02:37;;;;;;;82.63;73.68;;;;;;;1.97;64.03;100630.00;5060586;28;20057;-76
2021/01/31 03:05:16;;;;;;;81.45;71.95;;;;;;;1.91;64.31;100639.47;5063870;28;20043;-76
2021/01/31 03:07:50;;;;;;;76.85;66.43;;;;;;;1.96;64.12;100626.47;5058442;28;20033;-76
2021/01/31 03:10:23;;;;;;;75.57;63.72;;;;;;;1.86;64.06;100627.50;5064387;28;20115;-76
2021/01/31 03:12:56;;;;;;;84.30;71.20;;;;;;;1.97;63.88;100620.09;5061869;28;20033;-76
2021/01/31 03:15:26;;;;;;;77.22;61.38;;;;;;;1.76;64.55;100628.38;5063964;28;20032;-76
2021/01/31 03:17:51;;;;;;;77.20;64.05;;;;;;;1.94;63.90;100639.16;5065868;28;20495;-76
2021/01/31 03:20:29;;;;;;;84.32;75.35;;;;;;;1.61;64.94;100630.63;5064181;28;20032;-77
2021/01/31 03:23:24;;;;;;;75.65;63.70;;;;;;;1.83;64.17;100635.84;5063832;28;20769;-76
2021/01/31 03:25:58;;;;;;;75.18;60.85;;;;;;;1.81;64.19;100635.09;5060149;28;20040;-76
2021/01/31 03:28:23;;;;;;;83.18;73.35;;;;;;;1.75;64.39;100634.72;5058824;28;20487;-76
2021/01/31 03:30:49;;;;;;;86.53;76.75;;;;;;;1.83;64.08;100625.94;5063047;28;20086;-76
2021/01/31 03:33:22;;;;;;;72.82;62.10;;;;;;;1.79;64.27;100636.13;5062828;28;20072;-76
2021/01/31 03:35:51;;;;;;;75.47;64.47;;;;;;;1.85;64.35;100640.03;5059463;28;20398;-76
2021/01/31 03:38:31;;;;;;;77.85;69.38;;;;;;;1.87;64.00;100624.66;5067043;28;20478;-76
2021/01/31 03:41:01;;;;;;;69.15;54.95;;;;;;;1.89;63.62;100635.25;5064725;28;20539;-76
2021/01/31 03:43:27;;;;;;;75.68;64.30;;;;;;;1.88;64.10;100629.03;5065727;28;20035;-76
2021/01/31 03:46:15;;;;;;;71.75;60.75;;;;;;;1.84;63.84;100641.03;5059782;28;20040;-76
2021/01/31 03:49:00;;;;;;;78.40;62.13;;;;;;;1.88;64.02;100641.59;5063639;28;20032;-77
2021/01/31 03:51:26;;;;;;;79.13;65.40;;;;;;;1.92;63.92;100640.31;5060562;28;20051;-76
2021/01/31 03:53:52;;;;;;;71.85;58.08;;;;;;;1.77;64.39;100635.41;5068548;28;20028;-76
2021/01/31 03:56:24;;;;;;;75.35;67.03;;;;;;;2.01;64.14;100644.81;5063189;28;20375;-76
2021/01/31 03:58:53;;;;;;;70.15;54.55;;;;;;;2.01;63.85;100638.59;5063346;28;20386;-76
2021/01/31 04:01:23;;;;;;;74.05;60.35;;;;;;;1.91;63.95;100650.19;5060868;28;20041;-76
2021/01/31 04:03:56;;;;;;;68.43;49.55;;;;;;;1.98;63.76;100639.75;5059694;28;20032;-76
2021/01/31 04:06:25;;;;;;;67.13;52.75;;;;;;;1.83;64.59;100638.50;5065914;28;20156;-76
2021/01/31 04:08:56;;;;;;;75.95;67.78;;;;;;;1.90;64.50;100644.97;5065384;28;20059;-76
2021/01/31 04:12:00;;;;;;;75.05;64.68;;;;;;;1.88;64.60;100646.97;5066132;28;20135;-76
2021/01/31 04:14:37;;;;;;;69.32;57.03;;;;;;;1.88;64.57;100647.78;5061699;28;20072;-76
2021/01/31 04:17:03;;;;;;;69.00;56.85;;;;;;;2.08;64.20;100651.25;5065918;28;20032;-76
2021/01/31 04:19:28;;;;;;;72.85;63.97;;;;;;;2.04;64.20;100647.22;5063079;28;20399;-76
2021/01/31 04:21:54;;;;;;;78.93;70.10;;;;;;;1.93;64.71;100642.00;5067066;28;20813;-76
2021/01/31 04:24:19;;;;;;;82.38;73.85;;;;;;;1.96;64.20;100644.38;5061745;28;20040;-76
2021/01/31 04:26:44;;;;;;;70.15;58.90;;;;;;;1.97;64.41;100646.91;5065675;28;20037;-76
2021/01/31 04:29:10;;;;;;;73.10;64.93;;;;;;;1.88;64.87;100644.28;5052369;28;20091;-76
2021/01/31 04:31:35;;;;;;;74.45;59.13;;;;;;;1.95;64.40;100642.72;5066832;28;20166;-76
2021/01/31 04:34:01;;;;;;;73.68;64.75;;;;;;;2.03;64.16;100639.31;5066065;28;20135;-76
2021/01/31 04:36:28;;;;;;;69.28;60.60;;;;;;;1.90;64.90;100647.66;5064344;28;20075;-76
2021/01/31 04:38:54;;;;;;;69.63;53.35;;;;;;;1.99;64.36;100643.25;5056683;28;20028;-77
2021/01/31 04:41:20;;;;;;;57.92;44.30;;;;;;;2.07;63.85;100644.22;5060734;28;20040;-76
2021/01/31 04:43:49;;;;;;;66.10;56.10;;;;;;;2.10;63.75;100638.56;5063164;28;20131;-76
2021/01/31 04:46:22;;;;;;;63.85;52.17;;;;;;;1.95;64.46;100634.66;5061165;28;20159;-76
2021/01/31 04:49:06;;;;;;;72.47;64.47;;;;;;;1.84;64.55;100643.72;5059951;28;20025;-77
2021/01/31 04:51:52;;;;;;;74.03;66.03;;;;;;;1.91;64.28;100646.66;5062072;28;20036;-76
2021/01/31 04:54:35;;;;;;;81.05;72.55;;;;;;;2.00;64.16;100644.97;5064861;28;20623;-76
2021/01/31 04:57:14;;;;;;;70.30;61.78;;;;;;;1.97;64.47;100646.91;5063030;28;20043;-76
2021/01/31 04:59:43;;;;;;;68.53;55.70;;;;;;;1.79;64.90;100641.47;5061542;28;20028;-76
2021/01/31 05:02:34;;;;;;;71.10;57.75;;;;;;;2.00;64.23;100642.28;5053944;28;20051;-76
2021/01/31 05:05:01;;;;;;;68.60;54.70;;;;;;;1.86;65.03;100646.25;5061052;28;20028;-76
2021/01/31 05:07:34;;;;;;;69.35;53.30;;;;;;;1.98;64.28;100647.78;5054917;28;20040;-76
2021/01/31 05:10:00;;;;;;;64.55;54.50;;;;;;;1.81;64.59;100644.03;5064418;28;20086;-76
2021/01/31 05:12:57;;;;;;;65.57;54.25;;;;;;;1.99;63.77;100646.78;5064132;28;20032;-77
2021/01/31 05:15:29;;;;;;;61.67;46.08;;;;;;;1.87;63.84;100642.56;5064647;28;20039;-77
2021/01/31 05:17:58;;;;;;;61.35;48.92;;;;;;;1.88;64.22;100641.59;5064882;28;20726;-77
2021/01/31 05:20:28;;;;;;;73.88;65.97;;;;;;;1.92;64.06;100637.63;5060951;28;20115;-76
2021/01/31 05:22:57;;;;;;;67.25;59.67;;;;;;;1.94;64.30;100641.00;5052711;28;20502;-76
2021/01/31 05:25:27;;;;;;;72.78;62.10;;;;;;;1.81;64.58;100643.16;5060967;28;20032;-76
2021/01/31 05:27:58;;;;;;;70.88;58.53;;;;;;;1.70;64.93;100644.16;5062051;28;20595;-76
2021/01/31 05:30:25;;;;;;;66.82;57.08;;;;;;;1.93;64.58;100642.00;5061631;28;20025;-76
2021/01/31 05:33:07;;;;;;;74.07;64.70;;;;;;;1.96;64.06;100633.66;5053961;28;20025;-77
2021/01/31 05:35:36;;;;;;;65.35;55.90;;;;;;;1.93;64.27;100642.00;5062791;28;20097;-76
2021/01/31 05:38:02;;;;;;;66.82;57.75;;;;;;;1.82;64.45;100631.44;5063087;28;20534;-76
2021/01/31 05:40:36;;;;;;;82.65;74.10;;;;;;;1.84;64.84;100633.00;5062808;28;20573;-75
2021/01/31 05:43:03;;;;;;;76.28;66.28;;;;;;;1.92;64.54;100625.06;5056574;28;20441;-75
2021/01/31 05:45:36;;;;;;;69.40;57.58;;;;;;;1.93;64.41;100628.59;5061816;28;20035;-75
2021/01/31 05:48:16;;;;;;;76.07;66.18;;;;;;;1.78;64.96;100625.53;5064253;28;20415;-75
2021/01/31 05:50:43;;;;;;;73.47;65.35;;;;;;;1.70;65.49;100623.56;5062232;28;20028;-75
2021/01/31 05:53:34;;;;;;;64.72;52.42;;;;;;;1.89;64.96;100624.53;5062263;28;20237;-75
2021/01/31 05:56:24;;;;;;;60.28;53.17;;;;;;;2.01;64.30;100620.69;5059455;28;20031;-75
2021/01/31 05:59:10;;;;;;;72.47;61.65;;;;;;;1.96;64.65;100622.94;5064283;28;20401;-75
2021/01/31 06:01:56;;;;;;;69.30;54.95;;;;;;;2.01;64.70;100615.31;5057295;28;20143;-75
2021/01/31 06:04:25;;;;;;;70.10;60.15;;;;;;;1.94;64.82;100612.34;5058995;28;20044;-76
2021/01/31 06:06:51;;;;;;;66.05;53.60;;;;;;;1.73;65.45;100612.56;5059869;28;20455;-75
2021/01/31 06:09:44;;;;;;;71.18;58.92;;;;;;;1.61;65.91;100611.03;5058898;28;20067;-75
2021/01/31 06:12:18;;;;;;;65.10;51.45;;;;;;;1.84;64.85;100608.00;5055011;28;20044;-76
2021/01/31 06:14:48;;;;;;;69.43;56.20;;;;;;;1.66;65.55;100608.75;5062739;28;20050;-75
2021/01/31 06:17:20;;;;;;;71.40;57.67;;;;;;;1.84;65.00;100603.50;5060314;28;20035;-75
2021/01/31 06:19:46;;;;;;;75.70;65.28;;;;;;;1.92;64.52;100600.09;5061677;28;20501;-75
2021/01/31 06:22:13;;;;;;;65.45;55.35;;;;;;;1.96;63.92;100601.47;5063988;28;20064;-76
2021/01/31 06:24:48;;;;;;;75.75;63.03;;;;;;;1.93;63.84;100604.44;5068176;28;20557;-76
2021/01/31 06:27:28;;;;;;;63.95;51.67;;;;;;;2.02;63.50;100597.38;5064910;28;20437;-76
2021/01/31 06:30:01;;;;;;;64.88;50.70;;;;;;;1.81;64.32;100602.94;5063625;28;20021;-75
2021/01/31 06:32:31;;;;;;;68.80;57.88;;;;;;;1.84;63.98;100600.81;5060764;28;20032;-75
2021/01/31 06:35:01;;;;;;;77.07;67.15;;;;;;;1.60;64.78;100612.84;5066258;28;20592;-76
2021/01/31 06:37:45;;;;;;;75.28;67.30;;;;;;;1.78;64.04;100607.59;5069159;28;20025;-77
2021/01/31 06:40:33;;;;;;;72.78;63.45;;;;;;;1.74;63.97;100603.50;5062666;28;20059;-77
2021/01/31 06:43:20;;;;;;;69.85;60.17;;;;;;;1.70;63.98;100609.31;5058522;28;20399;-77
2021/01/31 06:45:59;;;;;;;73.55;65.50;;;;;;;1.70;64.32;100604.81;5068567;28;20032;-75
2021/01/31 06:48:40;;;;;;;73.78;65.93;;;;;;;1.60;64.16;100609.34;5068044;28;20029;-75
2021/01/31 06:51:34;;;;;;;70.72;62.53;;;;;;;1.44;64.26;100609.94;5064808;28;20037;-75
2021/01/31 06:54:27;;;;;;;67.25;58.13;;;;;;;1.58;64.18;100601.44;5057181;28;20040;-75
2021/01/31 06:57:04;;;;;;;74.75;66.68;;;;;;;1.64;63.93;100607.22;5064853;28;20116;-75
2021/01/31 06:59:44;;;;;;;69.78;61.60;;;;;;;1.57;64.25;100615.81;5066813;28;20044;-75
2021/01/31 07:02:47;;;;;;;64.95;54.92;;;;;;;1.48;64.60;100613.16;5064302;28;20071;-75
2021/01/31 07:05:34;;;;;;;85.75;77.00;;;;;;;1.24;65.35;100607.25;5062315;28;20036;-77
2021/01/31 07:08:31;;;;;;;74.38;61.67;;;;;;;1.42;65.09;100607.41;5066735;28;20112;-76
2021/01/31 07:11:29;;;;;;;71.30;63.00;;;;;;;1.50;65.04;100621.91;5059288;28;20086;-75
2021/01/31 07:14:13;;;;;;;72.20;63.35;;;;;;;1.84;64.02;100619.59;5066000;28;20032;-75
2021/01/31 07:16:41;;;;;;;76.50;68.80;;;;;;;1.78;64.06;100622.84;5060868;28;20468;-75
2021/01/31 07:19:29;;;;;;;73.03;65.28;;;;;;;1.68;64.52;100622.84;5064855;28;20035;-75
2021/01/31 07:22:07;;;;;;;74.35;66.22;;;;;;;1.85;63.96;100625.78;5067698;28;20033;-76
2021/01/31 07:24:54;;;;;;;83.05;74.57;;;;;;;1.73;64.30;100633.16;5059107;28;20040;-76
2021/01/31 07:27:30;;;;;;;74.15;66.47;;;;;;;1.86;63.86;100641.75;5066316;28;20028;-76
2021/01/31 07:30:02;;;;;;;85.50;76.78;;;;;;;1.76;64.31;100641.78;5061240;28;20028;-76
2021/01/31 07:32:50;;;;;;;80.63;72.45;;;;;;;2.02;63.61;100645.66;5062380;28;20021;-75
2021/01/31 07:35:21;;;;;;;80.35;72.18;;;;;;;2.00;63.52;100669.94;5061593;28;20039;-75
2021/01/31 07:37:49;;;;;;;79.40;71.35;;;;;;;2.01;63.96;100654.69;5060566;28;20453;-75
2021/01/31 07:40:21;;;;;;;93.30;84.30;;;;;;;2.10;63.08;100657.34;5063814;28;20477;-75
2021/01/31 07:42:51;;;;;;;84.28;75.90;;;;;;;2.16;63.10;100663.94;5056261;28;20070;-75
2021/01/31 07:45:19;;;;;;;97.80;88.78;;;;;;;2.18;63.08;100664.66;5060137;28;20040;-76
2021/01/31 07:47:49;;;;;;;83.50;75.25;;;;;;;2.09;63.00;100647.59;5059106;28;20595;-75
2021/01/31 07:50:19;;;;;;;72.82;65.05;;;;;;;2.14;63.20;100658.72;5063579;28;20745;-76
2021/01/31 07:52:49;;;;;;;61.45;54.80;;;;;;;2.15;63.13;100649.69;5060855;28;20056;-76
2021/01/31 07:55:23;;;;;;;70.82;63.35;;;;;;;2.21;62.98;100642.91;5060533;28;20021;-76
2021/01/31 07:58:31;;;;;;;58.78;48.50;;;;;;;2.14;63.00;100648.00;5058858;28;20041;-77
2021/01/31 08:00:56;;;;;;;65.28;58.15;;;;;;;2.06;63.30;100631.81;5060793;28;20058;-77
2021/01/31 08:03:27;;;;;;;72.00;64.32;;;;;;;1.94;63.48;100632.97;5065246;28;20037;-77
2021/01/31 08:06:18;;;;;;;60.00;51.15;;;;;;;2.06;63.19;100634.47;5059775;28;20036;-76
2021/01/31 08:08:52;;;;;;;64.50;51.75;;;;;;;2.15;63.10;100632.78;5062253;28;20056;-77
2021/01/31 08:11:17;;;;;;;77.90;70.05;;;;;;;2.33;62.68;100632.81;5062602;28;20123;-76
2021/01/31 08:13:43;;;;;;;88.20;79.38;;;;;;;2.32;62.27;100625.78;5060947;28;20035;-77
2021/01/31 08:16:53;;;;;;;76.20;68.30;;;;;;;2.16;62.82;100626.38;5059171;28;20028;-77
2021/01/31 08:19:19;;;;;;;73.70;66.30;;;;;;;2.51;62.34;100625.66;5063761;28;20036;-77
2021/01/31 08:21:56;;;;;;;80.65;72.30;;;;;;;2.97;61.50;100622.16;5062730;28;20036;-78
2021/01/31 08:24:59;;;;;;;61.67;54.88;;;;;;;2.93;60.67;100628.81;5058071;28;20025;-77
2021/01/31 08:27:42;;;;;;;73.40;65.93;;;;;;;2.90;60.36;100631.81;5057849;28;20078;-77
2021/01/31 08:30:14;;;;;;;69.28;61.92;;;;;;;2.90;60.66;100629.97;5060925;28;20024;-77
2021/01/31 08:32:57;;;;;;;60.88;53.42;;;;;;;2.89;60.79;100627.44;5060165;28;20050;-77
2021/01/31 08:35:26;;;;;;;64.28;57.28;;;;;;;3.23;60.83;100620.41;5059680;28;20036;-76
2021/01/31 08:38:14;;;;;;;64.05;57.10;;;;;;;3.58;59.86;100620.50;5057816;28;20036;-75
2021/01/31 08:40:40;;;;;;;64.38;57.42;;;;;;;3.66;59.65;100614.34;5066231;28;20136;-76
2021/01/31 08:43:10;;;;;;;58.92;49.78;;;;;;;3.95;59.73;100616.72;5060232;28;20036;-77
2021/01/31 08:45:40;;;;;;;57.13;50.33;;;;;;;4.40;58.85;100601.31;5068273;28;20036;-77
2021/01/31 08:48:06;;;;;;;58.65;46.80;;;;;;;5.35;56.68;100601.84;5057190;28;20032;-78
2021/01/31 08:50:32;;;;;;;56.75;50.35;;;;;;;5.56;54.80;100605.88;5067156;28;20518;-77
2021/01/31 08:53:02;;;;;;;60.35;53.75;;;;;;;6.06;54.04;100590.50;5056229;28;20037;-77
2021/01/31 08:55:28;;;;;;;63.88;57.10;;;;;;;6.79;53.02;100588.50;5066939;28;20387;-78
2021/01/31 08:57:59;;;;;;;51.55;45.88;;;;;;;7.03;51.72;100598.31;5066992;28;20035;-78
2021/01/31 09:00:27;;;;;;;41.78;36.78;;;;;;;7.23;50.24;100587.00;5062906;28;20032;-78
2021/01/31 09:02:52;;;;;;;41.00;35.85;;;;;;;7.90;49.22;100586.25;5065750;28;20115;-77
2021/01/31 09:05:19;;;;;;;37.33;32.75;;;;;;;7.51;49.50;100588.13;5059799;28;20047;-77
2021/01/31 09:07:47;;;;;;;35.85;29.20;;;;;;;7.50;48.84;100593.72;5066552;28;20047;-78
2021/01/31 09:10:19;;;;;;;38.00;31.60;;;;;;;7.81;48.32;100590.88;5065270;28;20024;-78
2021/01/31 09:12:45;;;;;;;36.90;28.63;;;;;;;8.41;48.24;100589.03;5062300;28;20051;-76
2021/01/31 09:15:24;;;;;;;35.92;28.85;;;;;;;8.64;46.35;100598.13;5066047;28;20479;-76
2021/01/31 09:17:50;;;;;;;30.40;23.90;;;;;;;8.82;45.69;100597.69;5065469;28;20036;-77
2021/01/31 09:20:26;;;;;;;32.83;26.63;;;;;;;7.90;46.98;100597.06;5056224;28;20043;-76
2021/01/31 09:22:56;;;;;;;33.53;27.80;;;;;;;6.40;50.26;100600.16;5061435;28;20039;-77
2021/01/31 09:25:24;;;;;;;37.60;28.85;;;;;;;5.84;52.20;100589.31;5057235;28;20076;-76
2021/01/31 09:27:59;;;;;;;43.53;35.05;;;;;;;5.16;54.10;100594.94;5060461;28;20024;-76
2021/01/31 09:30:26;;;;;;;45.60;39.45;;;;;;;5.00;54.93;100608.38;5056914;28;20040;-76
2021/01/31 09:32:57;;;;;;;41.00;35.20;;;;;;;4.53;55.91;100590.09;5060674;28;20153;-78
2021/01/31 09:35:29;;;;;;;40.03;30.77;;;;;;;4.29;56.63;100595.22;5063129;28;20052;-77
2021/01/31 09:38:07;;;;;;;43.90;39.10;;;;;;;4.18;57.23;100592.78;5060886;28;20036;-78
2021/01/31 09:40:35;;;;;;;40.63;36.17;;;;;;;3.87;57.51;100593.31;5060381;28;20554;-77
2021/01/31 09:43:05;;;;;;;43.50;38.80;;;;;;;3.84;57.61;100588.25;5053582;28;20028;-78
2021/01/31 09:45:45;;;;;;;52.08;46.83;;;;;;;3.65;58.52;100592.00;5055020;28;20033;-77
2021/01/31 09:48:13;;;;;;;47.20;42.60;;;;;;;3.96;57.76;100585.31;5056893;28;20032;-76
2021/01/31 09:50:39;;;;;;;56.85;51.40;;;;;;;4.13;57.66;100587.06;5056343;28;20457;-77
2021/01/31 09:53:05;;;;;;;57.80;52.30;;;;;;;3.75;57.53;100586.50;5060893;28;20107;-78
2021/01/31 09:55:43;;;;;;;59.72;54.22;;;;;;;3.48;57.71;100579.44;5055167;28;20164;-79
2021/01/31 09:58:18;;;;;;;59.90;54.33;;;;;;;3.59;57.91;100587.25;5051719;28;20102;-78
2021/01/31 10:00:44;;;;;;;54.85;49.13;;;;;;;3.44;57.96;100595.03;5052084;28;20451;-78
2021/01/31 10:03:25;;;;;;;49.83;44.95;;;;;;;3.78;57.65;100588.03;5053160;28;20039;-78
2021/01/31 10:06:06;;;;;;;47.42;42.50;;;;;;;4.07;57.17;100595.78;5052278;28;20854;-78
2021/01/31 10:08:32;;;;;;;56.38;50.78;;;;;;;4.37;56.35;100590.88;5054724;28;20036;-79
2021/01/31 10:11:25;;;;;;;50.83;45.38;;;;;;;4.68;55.71;100599.25;5061549;28;20032;-79
2021/01/31 10:13:50;;;;;;;54.60;48.90;;;;;;;5.06;54.26;100596.94;5054694;28;20025;-79
2021/01/31 10:16:22;;;;;;;44.28;36.50;;;;;;;5.19;54.18;100583.81;5053557;28;20067;-78
2021/01/31 10:18:48;;;;;;;41.55;36.50;;;;;;;5.12;53.83;100584.66;5061741;28;20522;-78
2021/01/31 10:21:20;;;;;;;40.42;35.92;;;;;;;5.10;54.11;100575.91;5057409;28;20036;-77
2021/01/31 10:23:47;;;;;;;62.45;56.38;;;;;;;5.60;53.23;100576.72;5057703;28;20028;-77
2021/01/31 10:26:20;;;;;;;39.45;35.22;;;;;;;5.64;52.40;100569.97;5047232;28;20032;-77
2021/01/31 10:28:56;;;;;;;43.72;39.47;;;;;;;5.76;51.26;100560.50;5052100;28;20036;-78
2021/01/31 10:31:30;;;;;;;40.78;33.35;;;;;;;5.64;51.38;100562.72;5054404;28;20032;-78
2021/01/31 10:33:58;;;;;;;34.20;30.60;;;;;;;5.61;51.25;100557.69;5061080;28;20035;-77
2021/01/31 10:36:38;;;;;;;42.60;38.53;;;;;;;5.55;51.91;100555.66;5050091;28;20215;-78
2021/01/31 10:39:09;;;;;;;38.28;34.30;;;;;;;6.20;50.12;100551.97;5054377;28;20029;-79
2021/01/31 10:41:45;;;;;;;37.40;33.60;;;;;;;5.91;50.38;100557.94;5053751;28;20035;-79
2021/01/31 10:44:13;;;;;;;42.53;38.53;;;;;;;6.05;50.32;100543.75;5058831;28;20041;-79
2021/01/31 10:46:40;;;;;;;47.10;42.65;;;;;;;5.88;50.77;100537.53;5059342;28;20064;-78
2021/01/31 10:49:06;;;;;;;38.65;34.83;;;;;;;5.95;50.15;100539.53;5059467;28;20039;-78
2021/01/31 10:51:34;;;;;;;36.40;32.53;;;;;;;5.36;51.74;100536.13;5054063;28;20037;-79
2021/01/31 10:54:00;;;;;;;36.47;32.90;;;;;;;5.17;52.43;100534.63;5057895;28;20047;-78
2021/01/31 10:56:27;;;;;;;49.88;45.25;;;;;;;4.95;53.08;100519.13;5062216;28;20572;-77
2021/01/31 10:58:52;;;;;;;45.38;40.97;;;;;;;5.33;52.59;100516.72;5052816;28;20029;-77
2021/01/31 11:01:19;;;;;;;39.55;35.80;;;;;;;5.48;52.19;100506.94;5050886;28;20109;-78
2021/01/31 11:03:45;;;;;;;39.30;35.38;;;;;;;5.70;52.06;100497.28;5053982;28;20037;-77
2021/01/31 11:06:10;;;;;;;40.08;36.25;;;;;;;5.72;51.48;100499.81;5052365;28;20037;-78
2021/01/31 11:08:36;;;;;;;36.92;33.35;;;;;;;5.56;52.12;100498.00;5069271;28;20037;-79
2021/01/31 11:11:02;;;;;;;41.60;37.78;;;;;;;5.50;52.34;100483.34;5058547;28;20032;-78
2021/01/31 11:13:27;;;;;;;46.38;42.05;;;;;;;5.41;52.72;100481.69;5059095;28;20430;-77
2021/01/31 11:15:53;;;;;;;41.55;37.65;;;;;;;5.37;52.96;100475.78;5052571;28;20635;-77
2021/01/31 11:18:19;;;;;;;44.97;40.95;;;;;;;5.30;52.77;100464.00;5061236;28;20028;-78
2021/01/31 11:20:44;;;;;;;36.85;33.50;;;;;;;5.23;52.28;100464.88;5060766;28;20080;-78
2021/01/31 11:23:10;;;;;;;41.92;38.08;;;;;;;5.34;52.08;100457.25;5063174;28;20028;-78
2021/01/31 11:25:35;;;;;;;36.22;32.60;;;;;;;5.38;52.75;100453.19;5058204;28;20068;-78
2021/01/31 11:28:01;;;;;;;35.90;32.67;;;;;;;5.14;52.11;100453.25;5063916;28;20162;-78
2021/01/31 11:30:29;;;;;;;41.88;38.00;;;;;;;5.34;52.00;100446.47;5062087;28;20721;-78
2021/01/31 11:32:55;;;;;;;40.42;36.88;;;;;;;5.40;51.58;100441.41;5057706;28;20773;-78
2021/01/31 11:35:20;;;;;;;36.80;33.10;;;;;;;5.44;51.37;100434.63;5060216;28;20557;-78
2021/01/31 11:37:45;;;;;;;34.80;31.50;;;;;;;5.40;51.89;100438.72;5060666;28;20052;-78
2021/01/31 11:40:11;;;;;;;28.77;25.95;;;;;;;5.24;51.54;100431.50;5059969;28;20048;-78
2021/01/31 11:42:37;;;;;;;34.13;30.75;;;;;;;5.61;50.64;100430.91;5053259;28;20044;-78